sensor_id;sensor_type;location;lat;lon;timestamp;pressure;altitude;pressure_sealevel;temperature;humidity
13011;BME280;6786;57.632;11.962;2023-04-26T00:02:24;99760.06;;;18.81;43.56
13011;BME280;6786;57.632;11.962;2023-04-26T00:04:53;99751.06;;;18.82;43.53
13011;BME280;6786;57.632;11.962;2023-04-26T00:07:24;99752.03;;;18.81;43.58
13011;BME280;6786;57.632;11.962;2023-04-26T00:09:54;99737.63;;;18.74;43.43
13011;BME280;6786;57.632;11.962;2023-04-26T00:12:22;99751.06;;;18.82;43.49
13011;BME280;6786;57.632;11.962;2023-04-26T00:14:50;99757.41;;;18.81;43.45
13011;BME280;6786;57.632;11.962;2023-04-26T00:17:20;99748.56;;;18.80;43.45
13011;BME280;6786;57.632;11.962;2023-04-26T00:19:48;99760.06;;;18.81;43.43
13011;BME280;6786;57.632;11.962;2023-04-26T00:22:16;99760.06;;;18.81;43.56
13011;BME280;6786;57.632;11.962;2023-04-26T00:24:44;99753.06;;;18.80;43.46
13011;BME280;6786;57.632;11.962;2023-04-26T00:27:13;99751.06;;;18.82;43.53
13011;BME280;6786;57.632;11.962;2023-04-26T00:29:41;99750.38;;;18.80;43.42
13011;BME280;6786;57.632;11.962;2023-04-26T00:32:09;99754.72;;;18.81;43.46
13011;BME280;6786;57.632;11.962;2023-04-26T00:34:39;99754.72;;;18.81;43.54
13011;BME280;6786;57.632;11.962;2023-04-26T00:37:07;99752.03;;;18.81;43.37
13011;BME280;6786;57.632;11.962;2023-04-26T00:39:35;99754.72;;;18.81;43.46
13011;BME280;6786;57.632;11.962;2023-04-26T00:42:03;99754.72;;;18.81;43.46
13011;BME280;6786;57.632;11.962;2023-04-26T00:44:31;99751.53;;;18.77;43.40
13011;BME280;6786;57.632;11.962;2023-04-26T00:46:59;99757.72;;;18.78;43.43
13011;BME280;6786;57.632;11.962;2023-04-26T00:49:28;99763.75;;;18.80;43.43
13011;BME280;6786;57.632;11.962;2023-04-26T00:51:58;99762.09;;;18.79;43.39
13011;BME280;6786;57.632;11.962;2023-04-26T00:54:27;99753.38;;;18.77;43.43
13011;BME280;6786;57.632;11.962;2023-04-26T00:56:56;99767.44;;;18.79;43.38
13011;BME280;6786;57.632;11.962;2023-04-26T00:59:25;99762.91;;;18.79;43.39
13011;BME280;6786;57.632;11.962;2023-04-26T01:01:54;99585.38;;;17.77;43.41
13011;BME280;6786;57.632;11.962;2023-04-26T01:04:23;99758.41;;;18.80;43.50
13011;BME280;6786;57.632;11.962;2023-04-26T01:06:53;99767.44;;;18.79;43.40
13011;BME280;6786;57.632;11.962;2023-04-26T01:09:23;99763.75;;;18.80;43.38
13011;BME280;6786;57.632;11.962;2023-04-26T01:11:51;99763.75;;;18.80;43.39
13011;BME280;6786;57.632;11.962;2023-04-26T01:14:22;99772.66;;;18.80;43.38
13011;BME280;6786;57.632;11.962;2023-04-26T01:16:51;99761.09;;;18.80;43.42
13011;BME280;6786;57.632;11.962;2023-04-26T01:19:19;99628.63;;;17.90;43.35
13011;BME280;6786;57.632;11.962;2023-04-26T01:21:47;99762.09;;;18.79;43.63
13011;BME280;6786;57.632;11.962;2023-04-26T01:24:17;99758.41;;;18.80;43.44
13011;BME280;6786;57.632;11.962;2023-04-26T01:26:45;99707.28;;;18.40;43.28
13011;BME280;6786;57.632;11.962;2023-04-26T01:29:15;99772.81;;;18.79;43.37
13011;BME280;6786;57.632;11.962;2023-04-26T01:31:44;99776.28;;;18.79;43.28
13011;BME280;6786;57.632;11.962;2023-04-26T01:34:12;99790.53;;;18.80;43.34
13011;BME280;6786;57.632;11.962;2023-04-26T01:36:41;99796.91;;;18.79;43.34
13011;BME280;6786;57.632;11.962;2023-04-26T01:39:09;99801.25;;;18.80;43.38
13011;BME280;6786;57.632;11.962;2023-04-26T01:41:38;99808.41;;;18.79;43.34
13011;BME280;6786;57.632;11.962;2023-04-26T01:44:06;99804.06;;;18.78;43.19
13011;BME280;6786;57.632;11.962;2023-04-26T01:46:35;99790.00;;;18.76;43.24
13011;BME280;6786;57.632;11.962;2023-04-26T01:49:03;99683.97;;;18.15;43.26
13011;BME280;6786;57.632;11.962;2023-04-26T01:51:31;99794.22;;;18.79;43.31
13011;BME280;6786;57.632;11.962;2023-04-26T01:54:00;99787.16;;;18.78;43.21
13011;BME280;6786;57.632;11.962;2023-04-26T01:56:28;99788.00;;;18.78;43.24
13011;BME280;6786;57.632;11.962;2023-04-26T01:58:58;99799.56;;;18.79;43.16
13011;BME280;6786;57.632;11.962;2023-04-26T02:01:26;99804.91;;;18.79;43.28
13011;BME280;6786;57.632;11.962;2023-04-26T02:03:54;99790.00;;;18.76;43.23
13011;BME280;6786;57.632;11.962;2023-04-26T02:06:22;99794.22;;;18.79;43.27
13011;BME280;6786;57.632;11.962;2023-04-26T02:08:51;99794.22;;;18.79;43.35
13011;BME280;6786;57.632;11.962;2023-04-26T02:11:20;99785.41;;;18.69;43.15
13011;BME280;6786;57.632;11.962;2023-04-26T02:13:48;99794.22;;;18.79;43.20
13011;BME280;6786;57.632;11.962;2023-04-26T02:16:18;99799.56;;;18.79;43.22
13011;BME280;6786;57.632;11.962;2023-04-26T02:18:47;99794.22;;;18.79;43.30
13011;BME280;6786;57.632;11.962;2023-04-26T02:21:16;99794.22;;;18.79;43.14
13011;BME280;6786;57.632;11.962;2023-04-26T02:23:45;99778.47;;;18.76;43.28
13011;BME280;6786;57.632;11.962;2023-04-26T02:26:13;99785.34;;;18.78;43.12
13011;BME280;6786;57.632;11.962;2023-04-26T02:28:42;99672.44;;;17.97;43.31
13011;BME280;6786;57.632;11.962;2023-04-26T02:31:10;99788.88;;;18.79;43.22
13011;BME280;6786;57.632;11.962;2023-04-26T02:33:40;99783.50;;;18.79;43.14
13011;BME280;6786;57.632;11.962;2023-04-26T02:36:08;99788.88;;;18.79;43.24
13011;BME280;6786;57.632;11.962;2023-04-26T02:38:36;99789.69;;;18.79;43.16
13011;BME280;6786;57.632;11.962;2023-04-26T02:41:04;99789.69;;;18.79;43.18
13011;BME280;6786;57.632;11.962;2023-04-26T02:43:32;99770.75;;;18.73;43.26
13011;BME280;6786;57.632;11.962;2023-04-26T02:46:00;99772.97;;;18.77;43.18
13011;BME280;6786;57.632;11.962;2023-04-26T02:48:28;99779.97;;;18.78;43.23
13011;BME280;6786;57.632;11.962;2023-04-26T02:50:58;99751.44;;;18.61;43.22
13011;BME280;6786;57.632;11.962;2023-04-26T02:53:26;99624.19;;;17.81;43.35
13011;BME280;6786;57.632;11.962;2023-04-26T02:55:54;99778.16;;;18.79;43.09
13011;BME280;6786;57.632;11.962;2023-04-26T02:58:22;99776.44;;;18.78;43.12
13011;BME280;6786;57.632;11.962;2023-04-26T03:00:50;99779.97;;;18.78;43.10
13011;BME280;6786;57.632;11.962;2023-04-26T03:03:20;99781.81;;;18.78;43.14
13011;BME280;6786;57.632;11.962;2023-04-26T03:05:49;99781.81;;;18.78;43.16
13011;BME280;6786;57.632;11.962;2023-04-26T03:08:18;99784.31;;;18.79;43.26
13011;BME280;6786;57.632;11.962;2023-04-26T03:10:47;99780.84;;;18.79;43.13
13011;BME280;6786;57.632;11.962;2023-04-26T03:13:15;99794.22;;;18.79;43.12
13011;BME280;6786;57.632;11.962;2023-04-26T03:15:44;99641.28;;;17.88;43.11
13011;BME280;6786;57.632;11.962;2023-04-26T03:18:12;99783.50;;;18.79;43.11
13011;BME280;6786;57.632;11.962;2023-04-26T03:20:41;99787.16;;;18.78;43.03
13011;BME280;6786;57.632;11.962;2023-04-26T03:23:09;99780.13;;;18.77;43.06
13011;BME280;6786;57.632;11.962;2023-04-26T03:25:39;99776.44;;;18.78;43.10
13011;BME280;6786;57.632;11.962;2023-04-26T03:28:07;99754.63;;;18.65;43.12
13011;BME280;6786;57.632;11.962;2023-04-26T03:30:35;99762.41;;;18.76;43.14
13011;BME280;6786;57.632;11.962;2023-04-26T03:33:04;99776.44;;;18.78;43.15
13011;BME280;6786;57.632;11.962;2023-04-26T03:35:32;99757.72;;;18.78;43.09
13011;BME280;6786;57.632;11.962;2023-04-26T03:38:00;99757.72;;;18.78;43.10
13011;BME280;6786;57.632;11.962;2023-04-26T03:40:28;99755.34;;;18.75;43.06
13011;BME280;6786;57.632;11.962;2023-04-26T03:42:58;99765.75;;;18.78;43.10
13011;BME280;6786;57.632;11.962;2023-04-26T03:45:26;99773.78;;;18.78;42.98
13011;BME280;6786;57.632;11.962;2023-04-26T03:47:54;99770.13;;;18.79;43.08
13011;BME280;6786;57.632;11.962;2023-04-26T03:50:22;99630.91;;;17.85;42.93
13011;BME280;6786;57.632;11.962;2023-04-26T03:52:50;99771.94;;;18.78;42.98
13011;BME280;6786;57.632;11.962;2023-04-26T03:55:19;99773.78;;;18.78;43.03
13011;BME280;6786;57.632;11.962;2023-04-26T03:57:47;99787.16;;;18.78;43.08
13011;BME280;6786;57.632;11.962;2023-04-26T04:00:17;99782.66;;;18.78;42.90
13011;BME280;6786;57.632;11.962;2023-04-26T04:02:45;99783.50;;;18.79;42.95
13011;BME280;6786;57.632;11.962;2023-04-26T04:05:13;99783.50;;;18.79;42.94
13011;BME280;6786;57.632;11.962;2023-04-26T04:07:41;99773.94;;;18.76;42.88
13011;BME280;6786;57.632;11.962;2023-04-26T04:10:10;99774.78;;;18.77;42.85
13011;BME280;6786;57.632;11.962;2023-04-26T04:12:38;99780.84;;;18.79;42.87
13011;BME280;6786;57.632;11.962;2023-04-26T04:15:07;99776.44;;;18.78;42.89
13011;BME280;6786;57.632;11.962;2023-04-26T04:17:37;99779.81;;;18.80;42.98
13011;BME280;6786;57.632;11.962;2023-04-26T04:20:06;99778.16;;;18.79;43.00
13011;BME280;6786;57.632;11.962;2023-04-26T04:22:35;99783.50;;;18.79;42.84
13011;BME280;6786;57.632;11.962;2023-04-26T04:25:06;99783.50;;;18.79;42.82
13011;BME280;6786;57.632;11.962;2023-04-26T04:27:35;99774.78;;;18.77;42.93
13011;BME280;6786;57.632;11.962;2023-04-26T04:30:05;99783.50;;;18.79;42.81
13011;BME280;6786;57.632;11.962;2023-04-26T04:32:34;99783.81;;;18.76;42.87
13011;BME280;6786;57.632;11.962;2023-04-26T04:35:05;99783.50;;;18.79;42.81
13011;BME280;6786;57.632;11.962;2023-04-26T04:37:33;99781.81;;;18.78;42.92
13011;BME280;6786;57.632;11.962;2023-04-26T04:40:02;99785.50;;;18.77;42.83
13011;BME280;6786;57.632;11.962;2023-04-26T04:42:31;99795.88;;;18.80;42.89
13011;BME280;6786;57.632;11.962;2023-04-26T04:45:00;99790.63;;;18.70;42.92
13011;BME280;6786;57.632;11.962;2023-04-26T04:47:29;99797.06;;;18.77;42.86
13011;BME280;6786;57.632;11.962;2023-04-26T04:49:57;99796.91;;;18.79;42.87
13011;BME280;6786;57.632;11.962;2023-04-26T04:52:27;99799.56;;;18.79;42.82
13011;BME280;6786;57.632;11.962;2023-04-26T04:54:55;99793.38;;;18.78;42.91
13011;BME280;6786;57.632;11.962;2023-04-26T04:57:23;99798.72;;;18.78;42.96
13011;BME280;6786;57.632;11.962;2023-04-26T04:59:52;99796.19;;;18.77;42.91
13011;BME280;6786;57.632;11.962;2023-04-26T05:02:20;99785.50;;;18.77;42.80
13011;BME280;6786;57.632;11.962;2023-04-26T05:04:48;99795.88;;;18.80;42.88
13011;BME280;6786;57.632;11.962;2023-04-26T05:07:16;99788.88;;;18.79;42.77
13011;BME280;6786;57.632;11.962;2023-04-26T05:09:46;99799.56;;;18.79;42.83
13011;BME280;6786;57.632;11.962;2023-04-26T05:12:14;99795.88;;;18.80;42.80
13011;BME280;6786;57.632;11.962;2023-04-26T05:14:42;99793.22;;;18.80;42.77
13011;BME280;6786;57.632;11.962;2023-04-26T05:17:10;99790.53;;;18.80;42.88
13011;BME280;6786;57.632;11.962;2023-04-26T05:19:39;99793.22;;;18.80;42.71
13011;BME280;6786;57.632;11.962;2023-04-26T05:22:07;99790.53;;;18.80;42.82
13011;BME280;6786;57.632;11.962;2023-04-26T05:24:35;99801.25;;;18.80;42.88
13011;BME280;6786;57.632;11.962;2023-04-26T05:27:04;99801.25;;;18.80;42.87
13011;BME280;6786;57.632;11.962;2023-04-26T05:29:33;99802.09;;;18.80;42.89
13011;BME280;6786;57.632;11.962;2023-04-26T05:32:01;99801.31;;;18.88;42.89
13011;BME280;6786;57.632;11.962;2023-04-26T05:34:29;99787.63;;;18.91;42.88
13011;BME280;6786;57.632;11.962;2023-04-26T05:36:57;99801.25;;;19.05;42.89
13011;BME280;6786;57.632;11.962;2023-04-26T05:39:26;99798.28;;;19.08;42.85
13011;BME280;6786;57.632;11.962;2023-04-26T05:41:54;99805.44;;;19.08;42.87
13011;BME280;6786;57.632;11.962;2023-04-26T05:44:24;99813.56;;;19.16;42.83
13011;BME280;6786;57.632;11.962;2023-04-26T05:46:52;99824.94;;;19.18;42.74
13011;BME280;6786;57.632;11.962;2023-04-26T05:49:21;99819.41;;;19.19;42.73
13011;BME280;6786;57.632;11.962;2023-04-26T05:51:49;99821.94;;;19.21;42.78
13011;BME280;6786;57.632;11.962;2023-04-26T05:54:18;99829.00;;;19.22;42.64
13011;BME280;6786;57.632;11.962;2023-04-26T05:56:46;99825.31;;;19.23;42.84
13011;BME280;6786;57.632;11.962;2023-04-26T05:59:15;99826.97;;;19.24;42.83
13011;BME280;6786;57.632;11.962;2023-04-26T06:01:44;99819.94;;;19.23;42.80
13011;BME280;6786;57.632;11.962;2023-04-26T06:04:12;99828.69;;;19.25;42.86
13011;BME280;6786;57.632;11.962;2023-04-26T06:06:41;99832.06;;;19.27;42.88
13011;BME280;6786;57.632;11.962;2023-04-26T06:09:09;99833.75;;;19.28;42.64
13011;BME280;6786;57.632;11.962;2023-04-26T06:11:38;99835.44;;;19.29;42.78
13011;BME280;6786;57.632;11.962;2023-04-26T06:14:06;99837.41;;;19.27;42.70
13011;BME280;6786;57.632;11.962;2023-04-26T06:16:50;99841.47;;;19.31;42.91
13011;BME280;6786;57.632;11.962;2023-04-26T06:19:19;99844.97;;;19.31;42.69
13011;BME280;6786;57.632;11.962;2023-04-26T06:21:47;99846.69;;;19.32;42.75
13011;BME280;6786;57.632;11.962;2023-04-26T06:24:15;99843.31;;;19.30;42.85
13011;BME280;6786;57.632;11.962;2023-04-26T06:26:44;99845.81;;;19.32;42.77
13011;BME280;6786;57.632;11.962;2023-04-26T06:29:12;99843.16;;;19.32;42.89
13011;BME280;6786;57.632;11.962;2023-04-26T06:31:40;99843.00;;;19.33;42.68
13011;BME280;6786;57.632;11.962;2023-04-26T06:34:10;99846.53;;;19.34;42.81
13011;BME280;6786;57.632;11.962;2023-04-26T06:36:40;99845.50;;;19.35;42.75
13011;BME280;6786;57.632;11.962;2023-04-26T06:39:08;99843.69;;;19.35;42.69
13011;BME280;6786;57.632;11.962;2023-04-26T06:41:36;99843.84;;;19.34;42.81
13011;BME280;6786;57.632;11.962;2023-04-26T06:44:04;99841.81;;;19.36;42.70
13011;BME280;6786;57.632;11.962;2023-04-26T06:46:33;99837.31;;;19.36;42.70
13011;BME280;6786;57.632;11.962;2023-04-26T06:49:01;99837.31;;;19.36;42.83
13011;BME280;6786;57.632;11.962;2023-04-26T06:51:30;99845.19;;;19.38;42.77
13011;BME280;6786;57.632;11.962;2023-04-26T06:53:58;99857.59;;;19.39;42.81
13011;BME280;6786;57.632;11.962;2023-04-26T06:56:27;99858.44;;;19.39;42.69
13011;BME280;6786;57.632;11.962;2023-04-26T06:58:58;99858.44;;;19.39;42.64
13011;BME280;6786;57.632;11.962;2023-04-26T07:01:27;99860.25;;;19.39;42.69
13011;BME280;6786;57.632;11.962;2023-04-26T07:03:59;99857.59;;;19.39;42.75
13011;BME280;6786;57.632;11.962;2023-04-26T07:06:31;99861.28;;;19.38;42.68
13011;BME280;6786;57.632;11.962;2023-04-26T07:08:59;99868.31;;;19.39;42.70
13011;BME280;6786;57.632;11.962;2023-04-26T07:11:28;99851.50;;;19.29;42.79
13011;BME280;6786;57.632;11.962;2023-04-26T07:13:57;99868.31;;;19.39;42.69
13011;BME280;6786;57.632;11.962;2023-04-26T07:16:25;99874.50;;;19.39;42.70
13011;BME280;6786;57.632;11.962;2023-04-26T07:18:54;99879.88;;;19.39;42.70
13011;BME280;6786;57.632;11.962;2023-04-26T07:21:24;99873.34;;;19.42;42.72
13011;BME280;6786;57.632;11.962;2023-04-26T07:23:54;99877.03;;;19.41;42.62
13011;BME280;6786;57.632;11.962;2023-04-26T07:26:23;99879.03;;;19.39;42.58
13011;BME280;6786;57.632;11.962;2023-04-26T07:28:52;99884.38;;;19.39;42.56
13011;BME280;6786;57.632;11.962;2023-04-26T07:31:21;99882.38;;;19.41;42.46
13011;BME280;6786;57.632;11.962;2023-04-26T07:33:49;99882.38;;;19.41;42.54
13011;BME280;6786;57.632;11.962;2023-04-26T07:36:18;99873.34;;;19.42;42.55
13011;BME280;6786;57.632;11.962;2023-04-26T07:38:50;99880.72;;;19.40;42.56
13011;BME280;6786;57.632;11.962;2023-04-26T07:41:19;99887.75;;;19.41;42.55
13011;BME280;6786;57.632;11.962;2023-04-26T07:43:48;99893.13;;;19.41;42.47
13011;BME280;6786;57.632;11.962;2023-04-26T07:46:16;99882.16;;;19.34;42.71
13011;BME280;6786;57.632;11.962;2023-04-26T07:48:45;99898.47;;;19.41;42.53
13011;BME280;6786;57.632;11.962;2023-04-26T07:51:14;99901.16;;;19.41;42.43
13011;BME280;6786;57.632;11.962;2023-04-26T07:53:42;99901.00;;;19.42;42.44
13011;BME280;6786;57.632;11.962;2023-04-26T07:56:10;99894.78;;;19.42;42.41
13011;BME280;6786;57.632;11.962;2023-04-26T07:58:40;99902.81;;;19.42;42.50
13011;BME280;6786;57.632;11.962;2023-04-26T08:01:08;99908.19;;;19.42;42.55
13011;BME280;6786;57.632;11.962;2023-04-26T08:03:37;99919.91;;;19.41;42.50
13011;BME280;6786;57.632;11.962;2023-04-26T08:06:06;99911.47;;;19.36;42.39
13011;BME280;6786;57.632;11.962;2023-04-26T08:08:35;99920.84;;;19.32;42.65
13011;BME280;6786;57.632;11.962;2023-04-26T08:11:08;99915.78;;;19.29;42.69
13011;BME280;6786;57.632;11.962;2023-04-26T08:13:36;99909.66;;;19.19;42.81
13011;BME280;6786;57.632;11.962;2023-04-26T08:16:06;99920.06;;;19.22;42.72
13011;BME280;6786;57.632;11.962;2023-04-26T08:18:34;99927.09;;;19.23;42.71
13011;BME280;6786;57.632;11.962;2023-04-26T08:21:02;99932.47;;;19.23;42.71
13011;BME280;6786;57.632;11.962;2023-04-26T08:23:32;99930.78;;;19.22;42.52
13011;BME280;6786;57.632;11.962;2023-04-26T08:26:01;99943.47;;;19.20;42.83
13011;BME280;6786;57.632;11.962;2023-04-26T08:28:29;99954.19;;;19.20;42.63
13011;BME280;6786;57.632;11.962;2023-04-26T08:30:57;99951.53;;;19.20;42.75
13011;BME280;6786;57.632;11.962;2023-04-26T08:33:27;99940.97;;;19.18;42.88
13011;BME280;6786;57.632;11.962;2023-04-26T08:35:55;99948.13;;;19.18;42.68
13011;BME280;6786;57.632;11.962;2023-04-26T08:38:25;99949.16;;;19.17;42.75
13011;BME280;6786;57.632;11.962;2023-04-26T08:40:58;99950.16;;;19.16;42.70
13011;BME280;6786;57.632;11.962;2023-04-26T08:43:28;99952.84;;;19.16;42.60
13011;BME280;6786;57.632;11.962;2023-04-26T08:45:57;99946.41;;;19.09;42.67
13011;BME280;6786;57.632;11.962;2023-04-26T08:48:31;99951.13;;;19.15;42.53
13011;BME280;6786;57.632;11.962;2023-04-26T08:51:01;99944.81;;;19.16;42.68
13011;BME280;6786;57.632;11.962;2023-04-26T08:53:33;99951.13;;;19.15;42.53
13011;BME280;6786;57.632;11.962;2023-04-26T08:56:03;99961.19;;;19.13;42.54
13011;BME280;6786;57.632;11.962;2023-04-26T08:58:32;99966.38;;;19.14;42.67
13011;BME280;6786;57.632;11.962;2023-04-26T09:01:00;99971.59;;;19.16;42.76
13011;BME280;6786;57.632;11.962;2023-04-26T09:03:31;99967.19;;;19.15;42.61
13011;BME280;6786;57.632;11.962;2023-04-26T09:06:00;99970.88;;;19.14;42.59
13011;BME280;6786;57.632;11.962;2023-04-26T09:08:32;99972.56;;;19.15;42.66
13011;BME280;6786;57.632;11.962;2023-04-26T09:11:03;99979.63;;;19.16;42.53
13011;BME280;6786;57.632;11.962;2023-04-26T09:13:31;99971.75;;;19.14;42.65
13011;BME280;6786;57.632;11.962;2023-04-26T09:15:59;99978.78;;;19.15;42.58
13011;BME280;6786;57.632;11.962;2023-04-26T09:18:32;99983.28;;;19.15;42.57
13011;BME280;6786;57.632;11.962;2023-04-26T09:21:02;99979.22;;;19.11;42.46
13011;BME280;6786;57.632;11.962;2023-04-26T09:23:31;99994.00;;;19.15;42.56
13011;BME280;6786;57.632;11.962;2023-04-26T09:26:15;99990.34;;;19.16;42.34
13011;BME280;6786;57.632;11.962;2023-04-26T09:28:43;99988.63;;;19.15;42.57
13011;BME280;6786;57.632;11.962;2023-04-26T09:31:34;99988.63;;;19.15;42.40
13011;BME280;6786;57.632;11.962;2023-04-26T09:34:05;99984.88;;;19.08;42.58
13011;BME280;6786;57.632;11.962;2023-04-26T09:36:49;99991.16;;;19.16;42.31
13011;BME280;6786;57.632;11.962;2023-04-26T09:39:29;99990.34;;;19.16;42.45
13011;BME280;6786;57.632;11.962;2023-04-26T09:41:58;100001.06;;;19.16;42.47
13011;BME280;6786;57.632;11.962;2023-04-26T09:44:28;99988.63;;;19.15;42.53
13011;BME280;6786;57.632;11.962;2023-04-26T09:46:58;100002.72;;;19.17;42.46
13011;BME280;6786;57.632;11.962;2023-04-26T09:49:30;99997.38;;;19.17;42.48
13011;BME280;6786;57.632;11.962;2023-04-26T09:52:02;99994.84;;;19.15;42.46
13011;BME280;6786;57.632;11.962;2023-04-26T09:54:38;99999.03;;;19.18;42.35
13011;BME280;6786;57.632;11.962;2023-04-26T09:57:07;99992.31;;;19.14;42.50
13011;BME280;6786;57.632;11.962;2023-04-26T09:59:43;100004.53;;;19.16;42.48
13011;BME280;6786;57.632;11.962;2023-04-26T10:02:17;100013.44;;;19.17;42.56
13011;BME280;6786;57.632;11.962;2023-04-26T10:04:48;100010.06;;;19.15;42.49
13011;BME280;6786;57.632;11.962;2023-04-26T10:07:20;100005.84;;;19.12;42.33
13011;BME280;6786;57.632;11.962;2023-04-26T10:09:48;100014.03;;;19.11;42.38
13011;BME280;6786;57.632;11.962;2023-04-26T10:12:18;99986.03;;;18.88;42.43
13011;BME280;6786;57.632;11.962;2023-04-26T10:14:47;100023.38;;;19.07;42.30
13011;BME280;6786;57.632;11.962;2023-04-26T10:17:17;100032.44;;;19.06;42.42
13011;BME280;6786;57.632;11.962;2023-04-26T10:19:49;100028.19;;;19.03;42.45
13011;BME280;6786;57.632;11.962;2023-04-26T10:22:22;100024.69;;;19.03;42.35
13011;BME280;6786;57.632;11.962;2023-04-26T10:24:53;100036.38;;;19.02;42.45
13011;BME280;6786;57.632;11.962;2023-04-26T10:27:46;100034.72;;;19.01;41.96
13011;BME280;6786;57.632;11.962;2023-04-26T10:30:15;100038.38;;;19.00;42.40
13011;BME280;6786;57.632;11.962;2023-04-26T10:33:10;100035.88;;;18.98;41.91
13011;BME280;6786;57.632;11.962;2023-04-26T10:36:00;100044.03;;;18.97;41.97
13011;BME280;6786;57.632;11.962;2023-04-26T10:38:30;100050.00;;;18.91;42.40
13011;BME280;6786;57.632;11.962;2023-04-26T10:41:33;100038.38;;;19.00;42.06
13011;BME280;6786;57.632;11.962;2023-04-26T10:44:38;100040.78;;;19.03;42.05
13011;BME280;6786;57.632;11.962;2023-04-26T10:47:20;100043.44;;;19.03;42.27
13011;BME280;6786;57.632;11.962;2023-04-26T10:49:49;100050.47;;;19.04;42.30
13011;BME280;6786;57.632;11.962;2023-04-26T10:52:19;100052.16;;;19.05;42.38
13011;BME280;6786;57.632;11.962;2023-04-26T10:54:53;100042.03;;;18.99;42.43
13011;BME280;6786;57.632;11.962;2023-04-26T10:57:24;100061.88;;;19.06;42.41
13011;BME280;6786;57.632;11.962;2023-04-26T11:00:25;100060.88;;;19.07;42.32
13011;BME280;6786;57.632;11.962;2023-04-26T11:03:01;100059.06;;;19.07;42.29
13011;BME280;6786;57.632;11.962;2023-04-26T11:05:51;100062.56;;;19.08;42.19
13011;BME280;6786;57.632;11.962;2023-04-26T11:08:27;100069.63;;;19.09;42.39
13011;BME280;6786;57.632;11.962;2023-04-26T11:11:06;100074.97;;;19.09;42.25
13011;BME280;6786;57.632;11.962;2023-04-26T11:13:37;100077.66;;;19.09;42.29
13011;BME280;6786;57.632;11.962;2023-04-26T11:16:06;100075.81;;;19.09;42.37
13011;BME280;6786;57.632;11.962;2023-04-26T11:18:36;100079.34;;;19.10;42.39
13011;BME280;6786;57.632;11.962;2023-04-26T11:21:05;100078.31;;;19.11;42.40
13011;BME280;6786;57.632;11.962;2023-04-26T11:23:35;100083.69;;;19.11;42.29
13011;BME280;6786;57.632;11.962;2023-04-26T11:26:04;100083.69;;;19.11;42.32
13011;BME280;6786;57.632;11.962;2023-04-26T11:28:35;100071.91;;;19.04;42.23
13011;BME280;6786;57.632;11.962;2023-04-26T11:31:04;100071.75;;;19.05;42.39
13011;BME280;6786;57.632;11.962;2023-04-26T11:33:33;100087.06;;;19.13;42.40
13011;BME280;6786;57.632;11.962;2023-04-26T11:36:01;100081.72;;;19.13;42.26
13011;BME280;6786;57.632;11.962;2023-04-26T11:38:30;100081.72;;;19.13;42.29
13011;BME280;6786;57.632;11.962;2023-04-26T11:41:00;100085.69;;;19.09;42.31
13011;BME280;6786;57.632;11.962;2023-04-26T11:43:30;100089.91;;;19.11;42.36
13011;BME280;6786;57.632;11.962;2023-04-26T11:46:01;100090.75;;;19.12;42.21
13011;BME280;6786;57.632;11.962;2023-04-26T11:48:31;100106.81;;;19.12;42.30
13011;BME280;6786;57.632;11.962;2023-04-26T11:51:01;100097.78;;;19.13;42.31
13011;BME280;6786;57.632;11.962;2023-04-26T11:53:36;100089.91;;;19.11;42.20
13011;BME280;6786;57.632;11.962;2023-04-26T11:56:14;100111.16;;;19.13;42.16
13011;BME280;6786;57.632;11.962;2023-04-26T11:58:44;100096.78;;;19.14;42.24
13011;BME280;6786;57.632;11.962;2023-04-26T12:01:19;100100.59;;;19.11;42.32
13011;BME280;6786;57.632;11.962;2023-04-26T12:03:49;100076.47;;;18.94;42.31
13011;BME280;6786;57.632;11.962;2023-04-26T12:06:18;100107.50;;;19.14;42.25
13011;BME280;6786;57.632;11.962;2023-04-26T12:08:50;100111.03;;;19.14;42.25
13011;BME280;6786;57.632;11.962;2023-04-26T12:11:20;100113.84;;;19.13;42.22
13011;BME280;6786;57.632;11.962;2023-04-26T12:13:48;100120.88;;;19.14;42.26
13011;BME280;6786;57.632;11.962;2023-04-26T12:16:16;100126.25;;;19.14;42.41
13011;BME280;6786;57.632;11.962;2023-04-26T12:18:52;100136.94;;;19.14;42.33
13011;BME280;6786;57.632;11.962;2023-04-26T12:21:23;100131.59;;;19.14;42.50
13011;BME280;6786;57.632;11.962;2023-04-26T12:23:55;100138.63;;;19.15;42.43
13011;BME280;6786;57.632;11.962;2023-04-26T12:26:43;100144.84;;;19.15;42.20
13011;BME280;6786;57.632;11.962;2023-04-26T12:29:11;100140.34;;;19.16;42.30
13011;BME280;6786;57.632;11.962;2023-04-26T12:31:39;100134.97;;;19.16;42.33
13011;BME280;6786;57.632;11.962;2023-04-26T12:34:07;100149.34;;;19.15;42.40
13011;BME280;6786;57.632;11.962;2023-04-26T12:36:36;100151.06;;;19.16;42.41
13011;BME280;6786;57.632;11.962;2023-04-26T12:39:04;100147.66;;;19.14;42.39
13011;BME280;6786;57.632;11.962;2023-04-26T12:41:32;100155.69;;;19.14;42.39
13011;BME280;6786;57.632;11.962;2023-04-26T12:44:02;100146.00;;;19.13;42.45
13011;BME280;6786;57.632;11.962;2023-04-26T12:46:30;100157.53;;;19.13;42.22
13011;BME280;6786;57.632;11.962;2023-04-26T12:48:58;100155.03;;;19.12;42.40
13011;BME280;6786;57.632;11.962;2023-04-26T12:51:27;100158.69;;;19.11;42.42
13011;BME280;6786;57.632;11.962;2023-04-26T12:53:55;100154.03;;;19.13;42.40
13011;BME280;6786;57.632;11.962;2023-04-26T12:56:23;100156.72;;;19.13;42.31
13011;BME280;6786;57.632;11.962;2023-04-26T12:58:52;100145.00;;;19.14;42.41
13011;BME280;6786;57.632;11.962;2023-04-26T13:01:21;100158.38;;;19.14;42.39
13011;BME280;6786;57.632;11.962;2023-04-26T13:03:49;100158.38;;;19.14;42.36
13011;BME280;6786;57.632;11.962;2023-04-26T13:06:18;100164.59;;;19.14;42.42
13011;BME280;6786;57.632;11.962;2023-04-26T13:08:46;100172.47;;;19.16;42.40
13011;BME280;6786;57.632;11.962;2023-04-26T13:11:14;100164.28;;;19.17;42.46
13011;BME280;6786;57.632;11.962;2023-04-26T13:13:43;100161.78;;;19.16;42.35